Aviation Digital Data Service (ADDS)

Output produced by METARs form (0727 UTC 16 October 2018)
found at http://aviationweather.gov/metar/data/
 
KGLS 160652Z AUTO 01012KT 10SM OVC006 21/21 A3003 RMK AO2 SLP169 T02110206
KGLS 160545Z 1606/1706 01016G24KT P6SM VCSH OVC007 
     FM161300 36014G22KT P6SM OVC011 
     FM162000 36015KT P6SM VCTS OVC010CB